createdAt,value
2023-08-04T00:00:21.850Z,101125.06
2023-08-04T00:02:49.129Z,101119.59
2023-08-04T00:05:15.812Z,101121.50
2023-08-04T00:07:44.161Z,101121.50
2023-08-04T00:10:11.112Z,101127.81
2023-08-04T00:12:37.838Z,101130.16
2023-08-04T00:15:05.274Z,101122.75
2023-08-04T00:17:32.137Z,101127.06
2023-08-04T00:19:58.739Z,101123.50
2023-08-04T00:22:25.410Z,101127.84
2023-08-04T00:24:51.993Z,101134.16
2023-08-04T00:27:18.522Z,101130.22
2023-08-04T00:29:45.253Z,101127.91
2023-08-04T00:32:11.747Z,101129.06
2023-08-04T00:34:38.431Z,101125.13
2023-08-04T00:37:04.950Z,101115.34
2023-08-04T00:39:31.849Z,101118.09
2023-08-04T00:41:58.435Z,101122.00
2023-08-04T00:44:25.059Z,101132.97
2023-08-04T00:46:52.417Z,101132.97
2023-08-04T00:49:19.750Z,101135.69
2023-08-04T00:51:48.190Z,101133.31
2023-08-04T00:54:15.217Z,101125.81
2023-08-04T00:56:42.780Z,101131.69
2023-08-04T00:59:09.351Z,101127.34
2023-08-04T01:01:36.229Z,101128.13
2023-08-04T01:04:03.143Z,101126.13
2023-08-04T01:06:36.864Z,101124.97
2023-08-04T01:09:17.599Z,101129.63
2023-08-04T01:11:52.381Z,101132.38
2023-08-04T01:14:20.049Z,101126.47
2023-08-04T01:16:46.540Z,101122.16
2023-08-04T01:19:13.015Z,101125.72
2023-08-04T01:21:41.937Z,101125.34
2023-08-04T01:24:09.011Z,101122.59
2023-08-04T01:26:39.786Z,101130.44
2023-08-04T01:29:08.888Z,101133.97
2023-08-04T01:31:35.969Z,101130.81
2023-08-04T01:34:04.143Z,101137.09
2023-08-04T01:36:30.682Z,101137.47
2023-08-04T01:38:57.407Z,101140.59
2023-08-04T01:41:24.006Z,101150.03
2023-08-04T01:43:50.587Z,101144.53
2023-08-04T01:46:17.125Z,101147.28
2023-08-04T01:48:43.769Z,101166.06
2023-08-04T01:51:10.315Z,101157.06
2023-08-04T01:53:36.840Z,101163.28
2023-08-04T01:56:03.899Z,101167.56
2023-08-04T01:58:30.562Z,101170.31
2023-08-04T02:00:57.196Z,101173.84
2023-08-04T02:03:23.777Z,101170.69
2023-08-04T02:05:51.497Z,101168.75
2023-08-04T02:08:19.193Z,101164.81
2023-08-04T02:10:50.306Z,101171.88
2023-08-04T02:13:17.076Z,101184.03
2023-08-04T02:15:43.695Z,101174.25
2023-08-04T02:18:10.331Z,101180.50
2023-08-04T02:20:36.910Z,101184.03
2023-08-04T02:23:03.940Z,101189.88
2023-08-04T02:25:30.517Z,101191.84
2023-08-04T02:27:57.100Z,101188.66
2023-08-04T02:30:23.773Z,101192.97
2023-08-04T02:32:51.995Z,101192.16
2023-08-04T02:35:18.889Z,101196.84
2023-08-04T02:37:45.571Z,101200.38
2023-08-04T02:40:12.553Z,101201.56
2023-08-04T02:42:39.222Z,101196.09
2023-08-04T02:45:06.884Z,101196.84
2023-08-04T02:47:33.449Z,101201.16
2023-08-04T02:50:00.056Z,101197.22
2023-08-04T02:52:26.627Z,101204.69
2023-08-04T02:54:56.892Z,101207.44
2023-08-04T02:57:23.534Z,101208.22
2023-08-04T02:59:50.081Z,101209.38
2023-08-04T03:02:16.653Z,101218.41
2023-08-04T03:04:43.326Z,101212.94
2023-08-04T03:07:11.350Z,101226.28
2023-08-04T03:09:37.915Z,101219.66
2023-08-04T03:12:04.875Z,101220.00
2023-08-04T03:14:31.427Z,101222.75
2023-08-04T03:16:57.987Z,101220.41
2023-08-04T03:19:24.597Z,101222.78
2023-08-04T03:21:51.220Z,101218.91
2023-08-04T03:24:17.912Z,101216.94
2023-08-04T03:26:44.606Z,101223.63
2023-08-04T03:29:11.395Z,101225.94
2023-08-04T03:31:38.056Z,101220.88
2023-08-04T03:34:04.732Z,101216.56
2023-08-04T03:36:32.254Z,101226.34
2023-08-04T03:38:58.805Z,101234.22
2023-08-04T03:41:25.425Z,101230.66
2023-08-04T03:43:52.016Z,101225.19
2023-08-04T03:46:18.626Z,101232.25
2023-08-04T03:48:45.328Z,101232.25
2023-08-04T03:51:11.913Z,101244.38
2023-08-04T03:53:38.466Z,101255.00
2023-08-04T03:56:05.350Z,101252.66
2023-08-04T03:58:31.871Z,101260.91
2023-08-04T04:00:58.491Z,101260.06
2023-08-04T04:03:25.173Z,101256.56
2023-08-04T04:05:51.737Z,101251.84
2023-08-04T04:08:18.455Z,101260.06
2023-08-04T04:10:45.032Z,101261.19
2023-08-04T04:13:11.575Z,101260.78
2023-08-04T04:15:38.130Z,101261.16
2023-08-04T04:18:04.719Z,101263.91
2023-08-04T04:20:31.314Z,101257.63
2023-08-04T04:22:57.876Z,101256.84
2023-08-04T04:25:24.403Z,101256.84
2023-08-04T04:27:50.993Z,101267.00
2023-08-04T04:30:17.722Z,101276.81
2023-08-04T04:32:44.397Z,101275.22
2023-08-04T04:35:10.987Z,101279.94
2023-08-04T04:37:37.578Z,101288.97
2023-08-04T04:40:04.584Z,101284.28
2023-08-04T04:42:33.765Z,101291.69
2023-08-04T04:45:01.316Z,101295.66
2023-08-04T04:47:28.998Z,101305.41
2023-08-04T04:49:55.552Z,101305.78
2023-08-04T04:52:36.814Z,101308.91
2023-08-04T04:55:04.945Z,101312.47
2023-08-04T04:57:32.086Z,101308.88
2023-08-04T04:59:58.635Z,101310.44
2023-08-04T05:02:25.283Z,101310.84
2023-08-04T05:04:52.887Z,101316.72
2023-08-04T05:07:19.479Z,101310.03
2023-08-04T05:09:46.054Z,101315.53
2023-08-04T05:12:12.586Z,101309.66
2023-08-04T05:14:39.206Z,101311.22
2023-08-04T05:17:06.043Z,101310.41
2023-08-04T05:19:32.642Z,101308.44
2023-08-04T05:21:59.267Z,101313.16
2023-08-04T05:24:27.144Z,101321.38
2023-08-04T05:26:53.765Z,101313.16
2023-08-04T05:29:20.354Z,101315.88
2023-08-04T05:31:47.512Z,101323.66
2023-08-04T05:34:14.162Z,101318.94
2023-08-04T05:36:40.697Z,101323.59
2023-08-04T05:39:07.268Z,101330.25
2023-08-04T05:41:33.816Z,101322.81
2023-08-04T05:44:00.336Z,101326.31
2023-08-04T05:46:26.965Z,101326.31
2023-08-04T05:48:53.593Z,101339.66
2023-08-04T05:51:20.066Z,101335.69
2023-08-04T05:53:46.706Z,101336.44
2023-08-04T05:56:13.356Z,101341.53
2023-08-04T05:58:40.092Z,101333.69
2023-08-04T06:01:11.706Z,101330.50
2023-08-04T06:03:38.392Z,101336.72
2023-08-04T06:06:06.048Z,101342.19
2023-08-04T06:08:32.708Z,101351.59
2023-08-04T06:10:59.775Z,101356.31
2023-08-04T06:13:26.506Z,101351.22
2023-08-04T06:15:53.150Z,101366.13
2023-08-04T06:18:19.733Z,101364.16
2023-08-04T06:20:48.934Z,101361.75
2023-08-04T06:23:15.957Z,101360.50
2023-08-04T06:25:42.663Z,101362.84
2023-08-04T06:28:09.314Z,101372.25
2023-08-04T06:30:36.055Z,101371.09
2023-08-04T06:33:02.693Z,101378.91
2023-08-04T06:35:29.377Z,101384.00
2023-08-04T06:37:56.062Z,101391.06
2023-08-04T06:40:22.737Z,101378.91
2023-08-04T06:42:49.372Z,101392.25
2023-08-04T06:45:16.514Z,101398.09
2023-08-04T06:47:43.129Z,101400.44
2023-08-04T06:50:10.379Z,101396.09
2023-08-04T06:52:37.026Z,101394.97
2023-08-04T06:55:05.870Z,101396.56
2023-08-04T06:57:32.805Z,101393.00
2023-08-04T06:59:59.407Z,101400.09
2023-08-04T07:02:26.042Z,101403.59
2023-08-04T07:04:52.749Z,101410.63
2023-08-04T07:07:20.506Z,101418.81
2023-08-04T07:09:47.067Z,101415.22
2023-08-04T07:12:14.003Z,101415.94
2023-08-04T07:14:40.725Z,101421.81
2023-08-04T07:17:07.401Z,101417.09
2023-08-04T07:19:34.052Z,101419.47
2023-08-04T07:22:41.001Z,101421.44
2023-08-04T07:25:08.219Z,101414.38
2023-08-04T07:27:35.154Z,101425.38
2023-08-04T07:30:01.898Z,101427.66
2023-08-04T07:32:31.711Z,101429.56
2023-08-04T07:34:58.337Z,101428.31
2023-08-04T07:37:25.074Z,101432.53
2023-08-04T07:39:51.714Z,101439.53
2023-08-04T07:42:18.370Z,101438.66
2023-08-04T07:44:45.015Z,101433.81
2023-08-04T07:47:12.653Z,101441.94
2023-08-04T07:49:39.320Z,101435.19
2023-08-04T07:52:06.698Z,101442.25
2023-08-04T07:58:00.764Z,101446.94
2023-08-04T08:00:58.652Z,101449.25
2023-08-04T08:03:43.499Z,101449.88
2023-08-04T08:06:10.701Z,101452.97
2023-08-04T08:08:51.186Z,101455.31
2023-08-04T08:11:17.967Z,101463.09
2023-08-04T08:13:44.729Z,101459.09
2023-08-04T08:16:18.678Z,101466.13
2023-08-04T08:18:46.493Z,101464.88
2023-08-04T08:21:14.023Z,101473.13
2023-08-04T08:23:42.667Z,101467.25
2023-08-04T08:26:09.335Z,101473.19
2023-08-04T08:28:36.223Z,101476.31
2023-08-04T08:31:02.908Z,101473.13
2023-08-04T08:33:29.637Z,101482.94
2023-08-04T08:35:57.188Z,101483.25
2023-08-04T08:38:23.847Z,101484.47
2023-08-04T08:40:50.487Z,101486.00
2023-08-04T08:43:17.418Z,101487.13
2023-08-04T08:45:45.657Z,101492.56
2023-08-04T08:48:12.770Z,101498.72
2023-08-04T08:50:41.948Z,101500.56
2023-08-04T08:53:14.758Z,101513.56
2023-08-04T08:55:41.952Z,101517.69
2023-08-04T08:58:09.546Z,101520.97
2023-08-04T09:00:36.454Z,101514.00
2023-08-04T09:03:09.998Z,101520.34
2023-08-04T09:05:36.896Z,101516.34
2023-08-04T09:08:04.333Z,101515.03
2023-08-04T09:10:33.473Z,101514.09
2023-08-04T09:13:01.643Z,101525.88
2023-08-04T09:15:35.624Z,101522.72
2023-08-04T09:18:07.735Z,101520.69
2023-08-04T09:20:34.457Z,101523.53
2023-08-04T09:23:01.848Z,101519.19
2023-08-04T09:25:28.512Z,101521.53
2023-08-04T09:27:56.775Z,101514.41
2023-08-04T09:30:23.788Z,101523.38
2023-08-04T09:32:52.057Z,101524.97
2023-08-04T09:35:18.871Z,101523.69
2023-08-04T09:37:45.619Z,101527.09
2023-08-04T09:40:16.593Z,101516.69
2023-08-04T09:42:44.104Z,101513.88
2023-08-04T09:45:18.441Z,101520.78
2023-08-04T09:47:50.344Z,101517.13
2023-08-04T09:50:19.726Z,101518.50
2023-08-04T09:52:46.924Z,101520.16
2023-08-04T09:55:13.760Z,101515.09
2023-08-04T09:57:40.606Z,101517.56
2023-08-04T10:00:09.885Z,101518.53
2023-08-04T10:02:38.238Z,101518.69
2023-08-04T10:05:05.685Z,101519.91
2023-08-04T10:07:32.840Z,101521.97
2023-08-04T10:10:01.904Z,101518.63
2023-08-04T10:12:30.379Z,101532.22
2023-08-04T10:14:57.913Z,101520.81
2023-08-04T10:17:26.404Z,101520.81
2023-08-04T10:20:05.226Z,101522.28
2023-08-04T10:22:33.471Z,101517.50
2023-08-04T10:25:00.531Z,101514.44
2023-08-04T10:27:28.009Z,101525.63
2023-08-04T10:30:12.050Z,101530.56
2023-08-04T10:32:40.706Z,101541.75
2023-08-04T10:35:18.653Z,101544.38
2023-08-04T10:37:47.751Z,101542.78
2023-08-04T10:40:14.473Z,101550.03
2023-08-04T10:43:07.331Z,101553.22
2023-08-04T10:46:12.120Z,101551.69
2023-08-04T10:48:41.855Z,101548.97
2023-08-04T10:51:09.664Z,101561.25
2023-08-04T10:53:36.977Z,101555.78
2023-08-04T10:56:08.397Z,101559.03
2023-08-04T10:58:37.270Z,101559.16
2023-08-04T11:01:04.096Z,101564.31
2023-08-04T11:03:34.649Z,101560.06
2023-08-04T11:06:01.724Z,101567.25
2023-08-04T11:08:28.624Z,101555.44
2023-08-04T11:10:58.529Z,101559.69
2023-08-04T11:13:26.752Z,101564.41
2023-08-04T11:15:55.152Z,101562.38
2023-08-04T11:18:28.513Z,101559.63
2023-08-04T11:20:55.530Z,101566.19
2023-08-04T11:23:28.458Z,101557.41
2023-08-04T11:26:14.877Z,101565.50
2023-08-04T11:28:41.661Z,101574.25
2023-08-04T11:31:10.104Z,101577.06
2023-08-04T11:34:09.008Z,101573.47
2023-08-04T11:36:33.592Z,101576.00
2023-08-04T11:39:00.322Z,101580.88
2023-08-04T11:41:28.931Z,101574.38
2023-08-04T11:43:55.752Z,101572.31
2023-08-04T11:46:22.764Z,101577.84
2023-08-04T11:48:49.420Z,101574.78
2023-08-04T11:51:17.431Z,101582.28
2023-08-04T11:53:48.324Z,101584.69
2023-08-04T11:56:29.681Z,101589.19
2023-08-04T11:59:09.992Z,101599.56
2023-08-04T12:01:36.816Z,101595.81
2023-08-04T12:04:20.410Z,101597.44
2023-08-04T12:06:47.112Z,101593.47
2023-08-04T12:09:13.879Z,101600.47
2023-08-04T12:11:51.257Z,101594.63
2023-08-04T12:14:18.496Z,101593.00
2023-08-04T12:16:53.609Z,101593.81
2023-08-04T12:19:21.984Z,101592.69
2023-08-04T12:21:54.829Z,101595.34
2023-08-04T12:24:22.455Z,101607.63
2023-08-04T12:27:10.775Z,101606.84
2023-08-04T12:30:06.076Z,101602.09
2023-08-04T12:35:20.480Z,101602.38
2023-08-04T12:37:53.717Z,101612.47
2023-08-04T12:40:20.519Z,101613.16
2023-08-04T12:42:47.197Z,101616.50
2023-08-04T12:47:54.585Z,101622.50
2023-08-04T12:50:29.630Z,101616.50
2023-08-04T12:53:03.464Z,101622.13
2023-08-04T12:55:30.179Z,101619.91
2023-08-04T12:57:56.752Z,101621.41
2023-08-04T13:00:44.822Z,101621.03
2023-08-04T13:03:11.524Z,101619.31
2023-08-04T13:05:40.103Z,101626.94
2023-08-04T13:08:08.240Z,101625.47
2023-08-04T13:10:35.560Z,101636.44
2023-08-04T13:13:02.461Z,101636.03
2023-08-04T13:15:29.985Z,101633.94
2023-08-04T13:17:59.544Z,101638.28
2023-08-04T13:20:28.979Z,101630.50
2023-08-04T13:23:33.253Z,101643.59
2023-08-04T13:29:18.992Z,101643.25
2023-08-04T13:36:19.099Z,101644.88
2023-08-04T13:39:43.478Z,101650.38
2023-08-04T13:42:14.827Z,101651.38
2023-08-04T13:44:41.402Z,101654.31
2023-08-04T13:47:07.994Z,101659.66
2023-08-04T13:49:34.721Z,101661.97
2023-08-04T13:52:01.538Z,101667.28
2023-08-04T13:54:29.342Z,101663.47
2023-08-04T13:56:55.916Z,101668.63
2023-08-04T13:59:22.522Z,101666.38
2023-08-04T14:01:49.706Z,101673.47
2023-08-04T14:04:16.724Z,101675.09
2023-08-04T14:06:43.417Z,101680.81
2023-08-04T14:09:10.047Z,101677.00
2023-08-04T14:11:36.617Z,101681.03
2023-08-04T14:14:04.008Z,101678.00
2023-08-04T14:16:30.622Z,101683.16
2023-08-04T14:18:57.233Z,101681.13
2023-08-04T14:21:23.819Z,101684.25
2023-08-04T14:23:50.497Z,101683.66
2023-08-04T14:26:17.670Z,101676.06
2023-08-04T14:28:45.128Z,101684.13
2023-08-04T14:31:11.939Z,101681.03
2023-08-04T14:33:38.612Z,101678.38
2023-08-04T14:36:05.248Z,101685.72
2023-08-04T14:38:31.952Z,101679.13
2023-08-04T14:40:59.021Z,101685.19
2023-08-04T14:43:26.665Z,101686.38
2023-08-04T14:45:55.426Z,101679.66
2023-08-04T14:48:22.200Z,101686.47
2023-08-04T14:50:48.859Z,101674.41
2023-08-04T14:53:15.677Z,101677.66
2023-08-04T14:55:42.238Z,101683.72
2023-08-04T14:58:08.915Z,101667.28
2023-08-04T15:00:36.162Z,101671.59
2023-08-04T15:03:02.985Z,101681.47
2023-08-04T15:05:36.042Z,101681.81
2023-08-04T15:08:02.817Z,101688.81
2023-08-04T15:10:30.508Z,101685.88
2023-08-04T15:12:57.180Z,101682.34
2023-08-04T15:15:23.852Z,101693.25
2023-08-04T15:17:50.538Z,101684.59
2023-08-04T15:20:17.481Z,101685.03
2023-08-04T15:22:45.049Z,101685.50
2023-08-04T15:25:11.693Z,101692.13
2023-08-04T15:27:44.321Z,101690.38
2023-08-04T15:30:11.190Z,101695.47
2023-08-04T15:32:37.794Z,101700.34
2023-08-04T15:35:04.589Z,101694.34
2023-08-04T15:37:31.166Z,101687.69
2023-08-04T15:39:58.092Z,101690.66
2023-08-04T15:42:24.919Z,101692.47
2023-08-04T15:44:51.640Z,101692.38
2023-08-04T15:47:18.444Z,101690.91
2023-08-04T15:49:45.669Z,101696.59
2023-08-04T15:52:12.309Z,101694.34
2023-08-04T15:54:38.990Z,101703.31
2023-08-04T15:57:05.948Z,101695.78
2023-08-04T15:59:32.585Z,101695.81
2023-08-04T16:01:59.306Z,101700.59
2023-08-04T16:04:25.965Z,101697.28
2023-08-04T16:06:52.596Z,101694.09
2023-08-04T16:09:19.220Z,101689.31
2023-08-04T16:11:45.881Z,101696.47
2023-08-04T16:14:12.581Z,101702.56
2023-08-04T16:16:39.400Z,101708.09
2023-08-04T16:19:06.619Z,101706.16
2023-08-04T16:21:33.357Z,101709.19
2023-08-04T16:24:00.033Z,101712.34
2023-08-04T16:26:26.710Z,101719.44
2023-08-04T16:28:53.335Z,101710.28
2023-08-04T16:31:20.216Z,101719.50
2023-08-04T16:33:47.063Z,101713.34
2023-08-04T16:36:13.717Z,101723.66
2023-08-04T16:38:40.340Z,101714.25
2023-08-04T16:41:06.960Z,101721.34
2023-08-04T16:43:33.751Z,101716.31
2023-08-04T16:46:00.545Z,101711.53
2023-08-04T16:48:27.348Z,101710.41
2023-08-04T16:50:55.077Z,101715.81
2023-08-04T16:53:21.706Z,101721.88
2023-08-04T16:55:51.042Z,101715.22
2023-08-04T16:58:19.400Z,101715.75
2023-08-04T17:00:46.568Z,101718.06
2023-08-04T17:03:16.047Z,101713.25
2023-08-04T17:05:42.608Z,101729.31
2023-08-04T17:08:09.253Z,101718.75
2023-08-04T17:10:40.333Z,101725.63
2023-08-04T17:13:07.337Z,101731.03
2023-08-04T17:15:37.935Z,101726.59
2023-08-04T17:18:05.888Z,101721.13
2023-08-04T17:20:32.594Z,101734.28
2023-08-04T17:22:59.264Z,101735.22
2023-08-04T17:25:26.372Z,101735.22
2023-08-04T17:27:53.156Z,101740.22
2023-08-04T17:30:19.773Z,101743.41
2023-08-04T17:32:46.570Z,101737.97
2023-08-04T17:35:13.248Z,101741.16
2023-08-04T17:37:39.861Z,101736.75
2023-08-04T17:40:07.862Z,101746.47
2023-08-04T17:42:34.480Z,101744.53
2023-08-04T17:45:01.152Z,101742.28
2023-08-04T17:47:27.773Z,101743.19
2023-08-04T17:49:54.449Z,101749.13
2023-08-04T17:52:21.006Z,101747.22
2023-08-04T17:54:47.786Z,101740.97
2023-08-04T17:57:15.147Z,101755.19
2023-08-04T17:59:42.541Z,101764.38
2023-08-04T18:02:10.710Z,101754.22
2023-08-04T18:04:37.520Z,101765.63
2023-08-04T18:07:04.314Z,101764.44
2023-08-04T18:09:31.959Z,101775.47
2023-08-04T18:11:58.672Z,101770.41
2023-08-04T18:14:25.363Z,101778.78
2023-08-04T18:16:52.257Z,101785.56
2023-08-04T18:19:19.366Z,101777.00
2023-08-04T18:21:46.157Z,101778.97
2023-08-04T18:24:12.896Z,101778.63
2023-08-04T18:26:40.702Z,101790.06
2023-08-04T18:29:07.268Z,101783.78
2023-08-04T18:31:33.928Z,101782.97
2023-08-04T18:34:00.532Z,101780.66
2023-08-04T18:36:27.308Z,101788.94
2023-08-04T18:38:53.897Z,101787.34
2023-08-04T18:41:21.025Z,101794.06
2023-08-04T18:43:47.661Z,101796.84
2023-08-04T18:46:14.384Z,101794.91
2023-08-04T18:48:41.141Z,101794.56
2023-08-04T18:51:07.794Z,101792.84
2023-08-04T18:53:34.507Z,101794.91
2023-08-04T18:56:01.366Z,101792.50
2023-08-04T18:58:28.066Z,101799.59
2023-08-04T19:00:54.777Z,101806.72
2023-08-04T19:03:21.563Z,101807.53
2023-08-04T19:05:48.361Z,101817.41
2023-08-04T19:08:15.056Z,101815.50
2023-08-04T19:10:42.311Z,101818.28
2023-08-04T19:13:09.095Z,101817.91
2023-08-04T19:15:35.803Z,101822.28
2023-08-04T19:18:02.470Z,101821.91
2023-08-04T19:20:29.110Z,101815.25
2023-08-04T19:22:55.894Z,101827.53
2023-08-04T19:25:22.504Z,101832.28
2023-08-04T19:27:49.001Z,101824.88
2023-08-04T19:30:17.742Z,101831.94
2023-08-04T19:32:44.456Z,101834.34
2023-08-04T19:35:11.117Z,101838.28
2023-08-04T19:37:38.406Z,101838.31
2023-08-04T19:40:05.693Z,101839.91
2023-08-04T19:42:32.522Z,101846.63
2023-08-04T19:44:59.067Z,101846.25
2023-08-04T19:47:25.788Z,101843.50
2023-08-04T19:49:53.256Z,101850.19
2023-08-04T19:52:19.878Z,101858.88
2023-08-04T19:54:46.498Z,101863.25
2023-08-04T19:57:15.804Z,101853.78
2023-08-04T19:59:42.809Z,101867.22
2023-08-04T20:02:09.359Z,101871.97
2023-08-04T20:04:38.740Z,101870.00
2023-08-04T20:07:07.609Z,101877.50
2023-08-04T20:09:34.279Z,101875.53
2023-08-04T20:12:01.020Z,101863.41
2023-08-04T20:14:27.653Z,101864.59
2023-08-04T20:16:54.305Z,101866.97
2023-08-04T20:19:20.965Z,101867.78
2023-08-04T20:21:48.642Z,101866.22
2023-08-04T20:24:38.678Z,101867.03
2023-08-04T20:27:06.688Z,101869.44
2023-08-04T20:29:35.931Z,101870.63
2023-08-04T20:32:03.930Z,101878.13
2023-08-04T20:34:30.523Z,101871.84
2023-08-04T20:37:00.689Z,101876.97
2023-08-04T20:39:27.334Z,101883.69
2023-08-04T20:41:54.391Z,101883.34
2023-08-04T20:44:20.995Z,101880.66
2023-08-04T20:46:47.814Z,101874.38
2023-08-04T20:49:16.763Z,101881.81
2023-08-04T20:51:43.430Z,101882.63
2023-08-04T20:54:10.114Z,101894.03
2023-08-04T20:56:36.836Z,101894.09
2023-08-04T20:59:03.604Z,101884.69
2023-08-04T21:01:30.197Z,101885.09
2023-08-04T21:03:56.990Z,101884.31
2023-08-04T21:06:23.648Z,101889.03
2023-08-04T21:08:50.324Z,101883.16
2023-08-04T21:11:19.550Z,101878.81
2023-08-04T21:13:46.463Z,101878.44
2023-08-04T21:16:13.129Z,101884.31
2023-08-04T21:18:40.038Z,101882.75
2023-08-04T21:21:08.041Z,101883.94
2023-08-04T21:23:34.696Z,101890.22
2023-08-04T21:26:04.261Z,101880.81
2023-08-04T21:28:30.818Z,101881.97
2023-08-04T21:30:57.447Z,101881.59
2023-08-04T21:33:24.018Z,101883.13
2023-08-04T21:36:10.501Z,101878.06
2023-08-04T21:38:37.123Z,101873.34
2023-08-04T21:41:05.814Z,101874.56
2023-08-04T21:43:33.058Z,101871.41
2023-08-04T21:46:11.471Z,101865.91
2023-08-04T21:48:38.581Z,101867.50
2023-08-04T21:51:15.538Z,101863.94
2023-08-04T21:53:42.704Z,101871.47
2023-08-04T21:56:09.519Z,101860.47
2023-08-04T21:58:36.175Z,101860.09
2023-08-04T22:01:06.794Z,101870.72
2023-08-04T22:03:34.321Z,101869.56
2023-08-04T22:06:01.161Z,101871.16
2023-08-04T22:08:27.688Z,101868.00
2023-08-04T22:10:54.303Z,101873.13
2023-08-04T22:13:20.859Z,101872.75
2023-08-04T22:15:47.470Z,101871.59
2023-08-04T22:18:14.018Z,101875.94
2023-08-04T22:20:40.775Z,101876.34
2023-08-04T22:23:07.337Z,101876.34
2023-08-04T22:25:34.072Z,101868.94
2023-08-04T22:28:00.688Z,101870.91
2023-08-04T22:30:27.285Z,101866.56
2023-08-04T22:32:53.870Z,101861.88
2023-08-04T22:35:20.508Z,101868.19
2023-08-04T22:37:52.084Z,101862.31
2023-08-04T22:40:18.565Z,101865.06
2023-08-04T22:42:45.140Z,101859.97
2023-08-04T22:45:11.755Z,101872.91
2023-08-04T22:47:38.384Z,101875.28
2023-08-04T22:50:05.322Z,101867.03
2023-08-04T22:52:31.911Z,101861.56
2023-08-04T22:54:58.586Z,101865.09
2023-08-04T22:57:25.170Z,101871.75
2023-08-04T22:59:52.104Z,101870.19
2023-08-04T23:02:18.862Z,101867.84
2023-08-04T23:04:45.454Z,101868.25
2023-08-04T23:07:12.084Z,101867.06
2023-08-04T23:09:43.192Z,101872.19
2023-08-04T23:12:09.927Z,101870.22
2023-08-04T23:14:36.465Z,101868.25
2023-08-04T23:17:03.208Z,101872.19
2023-08-04T23:19:29.860Z,101876.47
2023-08-04T23:21:56.436Z,101876.91
2023-08-04T23:24:23.114Z,101869.03
2023-08-04T23:26:50.622Z,101871.81
2023-08-04T23:29:18.569Z,101863.19
2023-08-04T23:31:46.189Z,101855.72
2023-08-04T23:34:12.738Z,101845.56
2023-08-04T23:36:39.415Z,101849.84
2023-08-04T23:39:05.976Z,101856.13
2023-08-04T23:41:32.559Z,101851.81
2023-08-04T23:43:59.108Z,101842.00
2023-08-04T23:46:26.267Z,101840.44
2023-08-04T23:48:52.977Z,101843.19
2023-08-04T23:51:19.576Z,101840.84
2023-08-04T23:53:46.164Z,101841.25
2023-08-04T23:56:12.705Z,101838.09
2023-08-04T23:58:39.453Z,101835.75
